Time;durP1;ratioP1;P1;durP2;ratioP2;P2;SDS_P1;SDS_P2;PMS_P1;PMS_P2;Temp;Humidity;BMP_temperature;BMP_pressure;BME280_temperature;BME280_humidity;BME280_pressure;Samples;Min_cycle;Max_cycle;Signal;HPM_P1;HPM_P2
2021/05/22 00:01:53;;;;;;;8.50;2.33;;;9.40;99.90;;;;;;5035426;28;20887;-85
2021/05/22 00:04:23;;;;;;;9.33;1.83;;;9.40;99.90;;;;;;5035022;28;20506;-85
2021/05/22 00:06:49;;;;;;;8.40;1.90;;;9.40;99.90;;;;;;5034728;28;20476;-85
2021/05/22 00:09:16;;;;;;;11.10;2.30;;;9.40;99.90;;;;;;5035445;28;20542;-83
2021/05/22 00:11:42;;;;;;;8.50;1.70;;;9.30;99.90;;;;;;5035262;28;20483;-84
2021/05/22 00:14:12;;;;;;;37.17;2.90;;;9.30;99.90;;;;;;5035133;28;20968;-84
2021/05/22 00:16:40;;;;;;;9.03;2.00;;;9.20;99.90;;;;;;5035147;28;20455;-85
2021/05/22 00:19:07;;;;;;;8.40;2.07;;;9.20;99.90;;;;;;5034877;28;20484;-84
2021/05/22 00:21:33;;;;;;;9.07;2.50;;;9.10;99.90;;;;;;5034035;28;20875;-82
2021/05/22 00:24:00;;;;;;;9.37;1.87;;;9.00;99.90;;;;;;5034712;28;20487;-86
2021/05/22 00:26:26;;;;;;;14.53;3.13;;;8.80;99.90;;;;;;5034702;28;20464;-85
2021/05/22 00:28:53;;;;;;;9.37;3.07;;;8.70;99.90;;;;;;5034886;28;20452;-85
2021/05/22 00:31:20;;;;;;;12.17;3.27;;;8.80;99.90;;;;;;5034817;28;20821;-85
2021/05/22 00:33:47;;;;;;;10.47;2.67;;;8.80;99.90;;;;;;5034909;28;20456;-84
2021/05/22 00:36:13;;;;;;;10.50;2.30;;;8.90;99.90;;;;;;5033967;28;20456;-84
2021/05/22 00:38:39;;;;;;;8.80;2.93;;;8.90;99.90;;;;;;5034959;28;20480;-84
2021/05/22 00:41:06;;;;;;;22.70;4.63;;;8.90;99.90;;;;;;5034478;28;20484;-86
2021/05/22 00:43:34;;;;;;;9.30;2.70;;;8.90;99.90;;;;;;5035030;28;20499;-84
2021/05/22 00:46:01;;;;;;;14.43;2.00;;;8.70;99.90;;;;;;5035531;28;20448;-84
2021/05/22 00:48:28;;;;;;;9.30;2.40;;;8.90;99.90;;;;;;5035494;28;20467;-83
2021/05/22 00:50:55;;;;;;;10.13;2.03;;;8.90;99.90;;;;;;5033793;28;20891;-83
2021/05/22 00:53:21;;;;;;;13.80;2.60;;;8.90;99.90;;;;;;5035318;28;20456;-84
2021/05/22 00:55:48;;;;;;;11.10;2.03;;;8.90;99.90;;;;;;5034802;28;20452;-85
2021/05/22 00:58:14;;;;;;;9.67;1.93;;;8.90;99.90;;;;;;5034994;28;20444;-86
2021/05/22 01:00:43;;;;;;;7.97;1.60;;;8.90;99.90;;;;;;5034646;28;20824;-86
2021/05/22 01:03:11;;;;;;;9.47;1.80;;;8.90;99.90;;;;;;5035087;28;20459;-84
2021/05/22 01:05:42;;;;;;;10.67;2.33;;;8.80;99.90;;;;;;5033419;28;20474;-86
2021/05/22 01:08:15;;;;;;;8.60;1.70;;;8.80;99.90;;;;;;5034828;28;20959;-83
2021/05/22 01:10:43;;;;;;;7.97;1.40;;;8.80;99.90;;;;;;5034716;28;20452;-82
2021/05/22 01:13:12;;;;;;;12.50;2.00;;;8.70;99.90;;;;;;5034521;28;20452;-82
2021/05/22 01:15:43;;;;;;;9.73;1.97;;;8.60;99.90;;;;;;5033384;28;20460;-83
2021/05/22 01:18:11;;;;;;;10.00;2.03;;;8.60;99.90;;;;;;5034053;28;20456;-81
2021/05/22 01:20:42;;;;;;;8.30;1.70;;;8.60;99.90;;;;;;5032881;28;20480;-85
2021/05/22 01:23:12;;;;;;;8.60;1.53;;;8.80;99.90;;;;;;5034873;28;20547;-85
2021/05/22 01:25:41;;;;;;;8.07;1.80;;;8.70;99.90;;;;;;5034634;28;20464;-81
2021/05/22 01:28:10;;;;;;;7.87;1.67;;;8.80;99.90;;;;;;5031071;28;20475;-87
2021/05/22 01:30:40;;;;;;;7.53;1.40;;;8.70;99.90;;;;;;5034454;28;20461;-82
2021/05/22 01:33:09;;;;;;;10.57;2.60;;;8.80;99.90;;;;;;5034142;28;20456;-83
2021/05/22 01:35:36;;;;;;;8.87;1.70;;;8.80;99.90;;;;;;5033159;28;20464;-82
2021/05/22 01:38:07;;;;;;;8.23;1.40;;;8.80;99.90;;;;;;5034533;28;20475;-85
2021/05/22 01:40:37;;;;;;;8.63;1.60;;;8.80;99.90;;;;;;5033791;28;20464;-84
2021/05/22 01:43:06;;;;;;;11.10;1.50;;;8.90;99.90;;;;;;5034239;28;20468;-84
2021/05/22 01:45:36;;;;;;;15.57;1.80;;;9.00;99.90;;;;;;5033766;28;20557;-85
2021/05/22 01:48:06;;;;;;;7.70;1.20;;;8.90;99.90;;;;;;5034782;28;20539;-85
2021/05/22 01:50:34;;;;;;;8.40;1.30;;;8.90;99.90;;;;;;5034254;28;20515;-86
2021/05/22 01:53:05;;;;;;;10.90;1.30;;;9.00;99.90;;;;;;5033748;28;20460;-83
2021/05/22 01:55:33;;;;;;;10.33;2.03;;;9.00;99.90;;;;;;5034429;28;21014;-86
2021/05/22 01:57:59;;;;;;;8.13;1.33;;;9.20;99.90;;;;;;5033524;28;20531;-83
2021/05/22 02:00:27;;;;;;;7.80;1.10;;;9.10;99.90;;;;;;5033752;28;20460;-84
2021/05/22 02:02:58;;;;;;;10.10;1.80;;;9.00;99.90;;;;;;5033633;28;20793;-84
2021/05/22 02:05:26;;;;;;;8.03;1.63;;;9.00;99.80;;;;;;5032949;28;20472;-84
2021/05/22 02:07:55;;;;;;;9.37;1.73;;;9.00;98.90;;;;;;5015204;28;20449;-85
2021/05/22 02:10:22;;;;;;;8.10;1.30;;;9.00;98.20;;;;;;5015406;28;20484;-85
2021/05/22 02:12:49;;;;;;;11.40;1.53;;;9.10;95.30;;;;;;5034297;28;20456;-86
2021/05/22 02:15:18;;;;;;;7.87;1.30;;;9.20;94.50;;;;;;5033863;28;20459;-87
2021/05/22 02:17:46;;;;;;;9.50;1.80;;;8.90;94.80;;;;;;5033309;28;20554;-83
2021/05/22 02:20:16;;;;;;;10.73;1.43;;;9.00;93.80;;;;;;5032309;28;20463;-87
2021/05/22 02:22:45;;;;;;;7.93;1.40;;;9.10;92.30;;;;;;5033306;28;20484;-84
2021/05/22 02:25:13;;;;;;;9.23;1.50;;;9.10;92.20;;;;;;5033119;28;21065;-86
2021/05/22 02:27:43;;;;;;;7.80;1.20;;;9.20;88.60;;;;;;5032971;28;20464;-85
2021/05/22 02:30:13;;;;;;;9.10;1.83;;;9.30;85.00;;;;;;5033119;28;20460;-84
2021/05/22 02:32:42;;;;;;;9.10;2.13;;;9.30;84.00;;;;;;5029796;28;20455;-85
2021/05/22 02:35:14;;;;;;;14.37;2.23;;;9.10;86.70;;;;;;5031607;28;20444;-82
2021/05/22 02:37:42;;;;;;;14.23;1.67;;;9.20;83.30;;;;;;5032734;28;20586;-88
2021/05/22 02:40:13;;;;;;;8.70;1.40;;;9.20;84.50;;;;;;5032456;28;20448;-86
2021/05/22 02:42:42;;;;;;;10.60;2.50;;;9.20;84.90;;;;;;5032479;28;20555;-86
2021/05/22 02:45:12;;;;;;;8.73;1.40;;;9.20;78.70;;;;;;5032393;28;20476;-85
2021/05/22 02:47:41;;;;;;;19.10;1.70;;;9.10;80.90;;;;;;5032521;28;20820;-86
2021/05/22 02:50:11;;;;;;;7.97;1.20;;;9.20;79.10;;;;;;5031064;28;20475;-80
2021/05/22 02:52:39;;;;;;;8.40;1.27;;;9.20;80.00;;;;;;5031410;28;20448;-86
2021/05/22 02:55:07;;;;;;;8.20;1.27;;;9.30;79.50;;;;;;5031957;28;20456;-87
2021/05/22 02:57:36;;;;;;;8.23;1.40;;;9.20;80.00;;;;;;5032570;28;20547;-90
2021/05/22 03:00:11;;;;;;;8.77;1.43;;;9.10;80.60;;;;;;5028346;28;20456;-87
2021/05/22 03:02:39;;;;;;;8.50;1.30;;;9.10;80.60;;;;;;5017648;28;20843;-78
2021/05/22 03:05:07;;;;;;;8.80;2.20;;;9.20;79.40;;;;;;5011688;28;20564;-79
2021/05/22 03:07:34;;;;;;;9.10;1.07;;;9.20;80.10;;;;;;5012928;28;20465;-78
2021/05/22 03:10:10;;;;;;;8.40;1.47;;;9.10;82.00;;;;;;5030677;28;20490;-83
2021/05/22 03:12:38;;;;;;;14.23;1.30;;;9.30;80.60;;;;;;5031834;28;21124;-83
2021/05/22 03:15:07;;;;;;;8.60;1.73;;;9.20;81.40;;;;;;5031703;28;20468;-84
2021/05/22 03:17:34;;;;;;;14.90;1.37;;;9.10;83.20;;;;;;5032027;28;20483;-82
2021/05/22 03:20:01;;;;;;;9.20;1.40;;;9.10;82.80;;;;;;5026469;28;20456;-82
2021/05/22 03:22:27;;;;;;;9.50;1.60;;;9.10;83.10;;;;;;5030763;28;20483;-82
2021/05/22 03:24:54;;;;;;;8.80;1.10;;;9.10;84.80;;;;;;5029971;28;20460;-83
2021/05/22 03:27:23;;;;;;;8.50;1.30;;;9.00;85.80;;;;;;5031807;28;20456;-83
2021/05/22 03:29:53;;;;;;;7.73;1.00;;;9.10;85.30;;;;;;5032134;28;20537;-83
2021/05/22 03:32:21;;;;;;;7.73;1.10;;;9.00;86.80;;;;;;5032283;28;20972;-83
2021/05/22 03:34:51;;;;;;;9.17;1.53;;;9.10;84.90;;;;;;5032486;28;20446;-83
2021/05/22 03:37:18;;;;;;;8.20;1.33;;;9.10;87.90;;;;;;5031428;28;20460;-81
2021/05/22 03:39:46;;;;;;;8.00;1.40;;;9.20;83.80;;;;;;5035634;28;20451;-81
2021/05/22 03:42:14;;;;;;;10.37;1.30;;;9.50;78.40;;;;;;5035560;28;20870;-81
2021/05/22 03:44:40;;;;;;;8.03;1.10;;;9.50;77.80;;;;;;5035375;28;20817;-81
2021/05/22 03:47:07;;;;;;;14.30;3.00;;;9.70;75.40;;;;;;5034957;28;20487;-80
2021/05/22 03:49:44;;;;;;;11.40;1.40;;;9.70;74.00;;;;;;5034916;28;20478;-83
2021/05/22 03:52:15;;;;;;;8.13;0.90;;;9.70;74.20;;;;;;5035033;28;20550;-84
2021/05/22 03:54:46;;;;;;;11.93;1.83;;;9.90;71.80;;;;;;5037689;28;21017;-84
2021/05/22 03:57:13;;;;;;;12.60;2.40;;;9.80;69.30;;;;;;5036412;28;20486;-88
2021/05/22 03:59:41;;;;;;;11.80;1.80;;;10.00;68.00;;;;;;5035316;28;20543;-79
2021/05/22 04:02:11;;;;;;;12.50;1.43;;;10.00;67.10;;;;;;5035086;28;20483;-85
2021/05/22 04:04:40;;;;;;;9.30;1.97;;;10.00;66.90;;;;;;5034995;28;20472;-84
2021/05/22 04:07:07;;;;;;;14.50;1.70;;;10.10;63.90;;;;;;5031089;28;20460;-84
2021/05/22 04:09:36;;;;;;;16.00;1.70;;;10.40;61.30;;;;;;5035160;28;20475;-86
2021/05/22 04:12:05;;;;;;;10.20;1.20;;;10.30;61.30;;;;;;5034877;28;20951;-84
2021/05/22 04:14:32;;;;;;;11.80;1.50;;;10.40;55.00;;;;;;5035156;28;22226;-80
2021/05/22 04:17:05;;;;;;;8.97;1.13;;;10.50;56.90;;;;;;5034862;28;20899;-85
2021/05/22 04:19:31;;;;;;;9.80;1.20;;;10.50;57.30;;;;;;5034346;28;20486;-86
2021/05/22 04:21:58;;;;;;;10.77;1.20;;;10.70;55.10;;;;;;5033935;28;20484;-83
2021/05/22 04:24:24;;;;;;;10.87;1.37;;;10.70;53.20;;;;;;5034823;28;20452;-85
2021/05/22 04:26:51;;;;;;;9.20;1.20;;;10.70;56.70;;;;;;5035160;28;20452;-84
2021/05/22 04:29:17;;;;;;;12.67;1.63;;;10.60;58.20;;;;;;5035747;28;20547;-80
2021/05/22 04:31:44;;;;;;;13.50;1.50;;;10.50;61.40;;;;;;5034740;28;20472;-79
2021/05/22 04:34:11;;;;;;;9.97;1.20;;;10.50;60.00;;;;;;5034574;28;20510;-84
2021/05/22 04:36:40;;;;;;;9.60;1.17;;;10.50;59.30;;;;;;5033447;28;20503;-84
2021/05/22 04:39:07;;;;;;;12.33;1.37;;;10.60;62.80;;;;;;5034478;28;20463;-85
2021/05/22 04:41:33;;;;;;;9.73;1.37;;;10.40;62.10;;;;;;5034924;28;20480;-85
2021/05/22 04:44:00;;;;;;;12.30;1.50;;;10.50;61.40;;;;;;5034399;28;20476;-84
2021/05/22 04:46:26;;;;;;;11.97;2.27;;;10.60;61.00;;;;;;5034405;28;20495;-84
2021/05/22 04:48:55;;;;;;;11.70;1.50;;;10.60;59.00;;;;;;5026551;28;20795;-84
2021/05/22 04:51:22;;;;;;;12.03;1.53;;;10.70;59.10;;;;;;5026966;28;20500;-85
2021/05/22 04:53:52;;;;;;;11.73;1.53;;;10.70;59.70;;;;;;5015260;28;20547;-83
2021/05/22 04:56:19;;;;;;;10.97;1.40;;;10.70;58.90;;;;;;5024393;28;20524;-85
2021/05/22 04:58:46;;;;;;;16.13;1.60;;;10.80;55.10;;;;;;5036124;28;20456;-84
2021/05/22 05:01:12;;;;;;;10.50;1.60;;;10.90;53.00;;;;;;5035747;28;20537;-85
2021/05/22 05:03:38;;;;;;;9.57;1.07;;;11.00;54.30;;;;;;5035608;28;20983;-87
2021/05/22 05:06:06;;;;;;;11.13;1.60;;;10.90;53.40;;;;;;5034644;28;20491;-86
2021/05/22 05:08:32;;;;;;;10.67;1.60;;;10.90;51.90;;;;;;5034960;28;20986;-86
2021/05/22 05:11:02;;;;;;;10.63;1.50;;;11.00;50.50;;;;;;5035370;28;20452;-86
2021/05/22 05:13:31;;;;;;;11.33;1.20;;;10.90;54.00;;;;;;5035999;28;20456;-83
2021/05/22 05:16:02;;;;;;;10.10;1.30;;;10.90;52.30;;;;;;5035759;28;20448;-83
2021/05/22 05:18:33;;;;;;;11.63;1.40;;;11.10;51.70;;;;;;5035647;28;20875;-86
2021/05/22 05:21:14;;;;;;;;;;;;;;;;;;;;;
2021/05/22 05:23:46;;;;;;;14.00;1.30;;;11.20;51.90;;;;;;5017558;28;20452;-87
2021/05/22 05:26:14;;;;;;;11.20;1.60;;;11.10;52.90;;;;;;5036080;28;20790;-86
2021/05/22 05:28:44;;;;;;;9.67;1.20;;;11.20;48.80;;;;;;5036591;28;20466;-83
2021/05/22 05:31:23;;;;;;;15.80;1.73;;;11.30;50.80;;;;;;5035007;28;20978;-86
2021/05/22 05:33:49;;;;;;;15.07;1.70;;;11.50;51.60;;;;;;5034471;28;20549;-86
2021/05/22 05:39:01;;;;;;;10.13;1.00;;;11.60;48.20;;;;;;5030478;28;20491;-87
2021/05/22 05:41:27;;;;;;;14.30;1.57;;;11.70;46.30;;;;;;5034474;28;20555;-87
2021/05/22 05:43:56;;;;;;;12.70;1.77;;;11.90;45.60;;;;;;5033762;28;20487;-87
2021/05/22 05:46:23;;;;;;;14.13;1.40;;;12.00;45.70;;;;;;5034093;28;20436;-84
2021/05/22 05:48:49;;;;;;;12.23;1.30;;;12.10;45.80;;;;;;5034246;28;20456;-85
2021/05/22 05:51:19;;;;;;;16.00;1.60;;;12.20;44.10;;;;;;5032399;28;20476;-85
2021/05/22 05:53:46;;;;;;;11.50;1.70;;;12.00;43.40;;;;;;5033257;28;20514;-83
2021/05/22 05:56:20;;;;;;;10.97;1.10;;;11.90;41.80;;;;;;5033260;28;20460;-85
2021/05/22 05:58:50;;;;;;;10.97;1.30;;;11.80;39.90;;;;;;5032532;28;20456;-85
2021/05/22 06:01:21;;;;;;;15.13;1.57;;;11.70;41.00;;;;;;5030076;28;20468;-84
2021/05/22 06:04:09;;;;;;;15.53;1.80;;;11.70;43.70;;;;;;5032823;28;20469;-85
2021/05/22 06:07:04;;;;;;;12.03;1.17;;;11.60;43.80;;;;;;5027790;28;20452;-83
2021/05/22 06:09:32;;;;;;;16.13;1.37;;;11.60;42.00;;;;;;5031961;28;20475;-83
2021/05/22 06:12:00;;;;;;;10.40;1.10;;;11.70;42.50;;;;;;5032565;28;20452;-87
2021/05/22 06:14:30;;;;;;;12.47;1.47;;;11.70;41.40;;;;;;5032793;28;20459;-84
2021/05/22 06:17:00;;;;;;;22.50;2.00;;;11.80;41.50;;;;;;5030444;28;20455;-87
2021/05/22 06:19:28;;;;;;;10.13;1.00;;;11.80;40.20;;;;;;5033100;28;20514;-84
2021/05/22 06:21:54;;;;;;;14.73;2.80;;;11.80;41.60;;;;;;5031480;28;20578;-85
2021/05/22 06:24:21;;;;;;;10.90;1.13;;;11.60;41.60;;;;;;5032233;28;21031;-83
2021/05/22 06:26:47;;;;;;;10.20;1.00;;;11.60;39.40;;;;;;5032818;28;20943;-82
2021/05/22 06:29:15;;;;;;;12.33;1.70;;;11.60;38.80;;;;;;5032912;28;20455;-87
2021/05/22 06:31:46;;;;;;;10.70;1.23;;;11.60;41.50;;;;;;5033009;28;20455;-87
2021/05/22 06:34:24;;;;;;;17.20;1.33;;;11.70;38.50;;;;;;5031983;28;20811;-83
2021/05/22 06:36:53;;;;;;;11.77;1.20;;;11.80;37.60;;;;;;5011450;28;20449;-82
2021/05/22 06:42:21;;;;;;;11.10;1.20;;;11.90;37.50;;;;;;5023488;28;20507;-85
2021/05/22 06:44:56;;;;;;;13.70;2.70;;;12.00;36.90;;;;;;5027201;28;20464;-84
2021/05/22 06:47:36;;;;;;;10.67;1.37;;;12.00;34.10;;;;;;5032753;28;20517;-87
2021/05/22 06:50:38;;;;;;;11.87;1.70;;;12.10;33.50;;;;;;5032022;28;20517;-86
2021/05/22 06:53:12;;;;;;;10.90;1.30;;;12.10;34.70;;;;;;5030628;28;20969;-85
2021/05/22 06:55:39;;;;;;;10.87;1.47;;;12.00;35.40;;;;;;5031959;28;20458;-81
2021/05/22 06:58:23;;;;;;;11.77;1.40;;;11.80;36.80;;;;;;5031178;28;20499;-85
2021/05/22 07:00:55;;;;;;;15.63;1.80;;;11.70;39.50;;;;;;5032479;28;20452;-84
2021/05/22 07:03:21;;;;;;;11.63;1.60;;;11.70;39.00;;;;;;5032167;28;20827;-83
2021/05/22 07:05:48;;;;;;;11.73;1.20;;;11.70;44.00;;;;;;5031078;28;20447;-83
2021/05/22 07:08:17;;;;;;;10.90;1.27;;;11.60;43.10;;;;;;5031315;28;20448;-82
2021/05/22 07:10:43;;;;;;;13.80;1.80;;;11.60;46.60;;;;;;5031163;28;20870;-83
2021/05/22 07:13:10;;;;;;;15.73;2.13;;;11.40;60.10;;;;;;5032824;28;20479;-82
2021/05/22 07:15:37;;;;;;;11.37;1.33;;;11.20;58.80;;;;;;5035034;28;20452;-83
2021/05/22 07:18:04;;;;;;;14.00;1.87;;;11.20;56.00;;;;;;5034843;28;20539;-83
2021/05/22 07:20:30;;;;;;;13.27;1.60;;;11.20;55.90;;;;;;5033228;28;20448;-83
2021/05/22 07:22:59;;;;;;;10.30;1.50;;;11.20;56.30;;;;;;5035006;28;20516;-83
2021/05/22 07:25:25;;;;;;;13.63;1.70;;;11.20;61.30;;;;;;5031550;28;20534;-83
2021/05/22 07:27:53;;;;;;;10.40;1.40;;;11.20;58.50;;;;;;5034176;28;21029;-82
2021/05/22 07:30:20;;;;;;;10.30;1.30;;;11.20;60.10;;;;;;5034636;28;20451;-82
2021/05/22 07:32:47;;;;;;;12.83;2.00;;;11.20;58.90;;;;;;5034885;28;20456;-82
2021/05/22 07:35:15;;;;;;;16.13;2.00;;;11.20;53.70;;;;;;5032435;28;20583;-83
2021/05/22 07:37:43;;;;;;;9.47;1.30;;;11.40;61.40;;;;;;5032434;28;20531;-83
2021/05/22 07:40:11;;;;;;;11.83;1.70;;;11.40;60.70;;;;;;5033052;28;20634;-82
2021/05/22 07:42:40;;;;;;;10.20;1.37;;;11.30;59.30;;;;;;5014645;28;20484;-80
2021/05/22 07:45:11;;;;;;;10.17;1.50;;;11.40;90.90;;;;;;5022773;28;20459;-83
2021/05/22 07:47:41;;;;;;;11.03;1.43;;;11.00;92.40;;;;;;5034225;28;20452;-82
2021/05/22 07:50:09;;;;;;;13.20;1.37;;;11.00;91.40;;;;;;5033158;28;20541;-81
2021/05/22 07:52:40;;;;;;;13.03;1.40;;;10.90;85.50;;;;;;5034601;28;20820;-82
2021/05/22 07:55:07;;;;;;;20.73;1.80;;;11.00;87.50;;;;;;5034311;28;20460;-82
2021/05/22 07:57:34;;;;;;;10.20;1.27;;;10.90;84.40;;;;;;5033854;28;20536;-84
2021/05/22 08:00:00;;;;;;;10.70;1.43;;;10.90;85.10;;;;;;5034287;28;20543;-84
2021/05/22 08:02:27;;;;;;;10.53;1.20;;;11.00;85.60;;;;;;5034060;28;20515;-82
2021/05/22 08:04:53;;;;;;;12.80;1.90;;;11.20;79.70;;;;;;5034001;28;20886;-82
2021/05/22 08:07:23;;;;;;;10.90;1.27;;;11.30;70.70;;;;;;5032741;28;20547;-82
2021/05/22 08:12:33;;;;;;;9.53;1.23;;;11.70;66.70;;;;;;5032904;28;20448;-83
2021/05/22 08:14:59;;;;;;;10.47;1.40;;;11.80;60.70;;;;;;5035403;28;20508;-81
2021/05/22 08:17:26;;;;;;;12.23;1.70;;;11.90;59.90;;;;;;5034620;28;20490;-83
2021/05/22 08:19:53;;;;;;;12.33;1.70;;;12.20;56.20;;;;;;5035249;28;20462;-82
2021/05/22 08:22:19;;;;;;;16.50;1.60;;;12.40;56.50;;;;;;5033628;28;20484;-82
2021/05/22 08:24:45;;;;;;;10.80;1.20;;;12.40;50.20;;;;;;5034701;28;20918;-81
2021/05/22 08:27:27;;;;;;;11.40;1.50;;;12.20;52.10;;;;;;5031896;28;20456;-82
2021/05/22 08:29:53;;;;;;;13.60;1.73;;;12.20;53.70;;;;;;5053094;28;20822;-82
2021/05/22 08:32:20;;;;;;;11.80;1.13;;;12.20;51.00;;;;;;5037353;28;20463;-82
2021/05/22 08:34:46;;;;;;;12.10;1.10;;;12.20;52.60;;;;;;5032870;28;20455;-81
2021/05/22 08:37:13;;;;;;;11.40;1.27;;;12.20;50.70;;;;;;5032220;28;20502;-81
2021/05/22 08:39:44;;;;;;;11.13;1.40;;;12.20;49.80;;;;;;5021820;28;20452;-81
2021/05/22 08:42:15;;;;;;;13.10;1.33;;;12.30;47.90;;;;;;5017144;28;20518;-84
2021/05/22 08:44:45;;;;;;;11.30;1.23;;;12.30;48.20;;;;;;5033384;28;20488;-82
2021/05/22 08:47:15;;;;;;;11.17;1.03;;;12.30;46.90;;;;;;5034009;28;20463;-84
2021/05/22 08:49:50;;;;;;;13.77;1.90;;;12.40;44.00;;;;;;5034027;28;20487;-82
2021/05/22 08:52:23;;;;;;;16.87;1.57;;;12.50;44.50;;;;;;5033250;28;20463;-83
2021/05/22 08:54:55;;;;;;;13.87;1.37;;;12.70;44.20;;;;;;5033776;28;20847;-82
2021/05/22 08:57:23;;;;;;;11.63;1.30;;;12.60;42.30;;;;;;5034456;28;20452;-82
2021/05/22 08:59:49;;;;;;;14.60;1.30;;;12.80;42.50;;;;;;5034337;28;20456;-83
2021/05/22 09:02:20;;;;;;;11.80;1.37;;;13.00;39.30;;;;;;5034135;28;20523;-83
2021/05/22 09:05:07;;;;;;;12.20;1.90;;;13.30;38.50;;;;;;5034150;28;20475;-82
2021/05/22 09:07:35;;;;;;;14.37;1.67;;;13.40;35.70;;;;;;5033892;28;20525;-83
2021/05/22 09:10:10;;;;;;;11.93;1.10;;;13.40;35.30;;;;;;5034095;28;20456;-83
2021/05/22 09:12:40;;;;;;;17.53;1.40;;;13.50;32.80;;;;;;5034156;28;20460;-83
2021/05/22 09:15:16;;;;;;;14.07;1.27;;;13.50;33.00;;;;;;5034316;28;20452;-83
2021/05/22 09:17:51;;;;;;;24.50;2.47;;;13.50;31.90;;;;;;5034026;28;21019;-84
2021/05/22 09:20:22;;;;;;;14.93;1.23;;;13.60;32.30;;;;;;5032680;28;20510;-82
2021/05/22 09:23:08;;;;;;;14.17;1.57;;;13.50;31.50;;;;;;5033698;28;20487;-82
2021/05/22 09:25:45;;;;;;;12.67;1.30;;;13.40;32.00;;;;;;5033842;28;20452;-82
2021/05/22 09:28:26;;;;;;;15.83;1.37;;;13.20;32.30;;;;;;5034054;28;20508;-83
2021/05/22 09:30:57;;;;;;;15.63;1.50;;;13.30;36.30;;;;;;5033697;28;20463;-82
2021/05/22 09:33:27;;;;;;;13.40;1.50;;;13.20;35.70;;;;;;5033801;28;20456;-83
2021/05/22 09:36:00;;;;;;;17.70;1.83;;;13.10;34.60;;;;;;5031827;28;20464;-82
2021/05/22 09:38:37;;;;;;;13.67;1.83;;;13.10;35.40;;;;;;5033760;28;20506;-82
2021/05/22 09:41:45;;;;;;;13.50;1.47;;;13.10;36.00;;;;;;5033532;28;20460;-82
2021/05/22 09:44:25;;;;;;;12.97;1.50;;;13.00;32.50;;;;;;5013834;28;20483;-83
2021/05/22 09:47:09;;;;;;;13.50;1.40;;;13.00;32.40;;;;;;5033655;28;20491;-82
2021/05/22 09:49:44;;;;;;;14.63;1.63;;;13.00;31.00;;;;;;5033343;28;20858;-82
2021/05/22 09:52:27;;;;;;;15.33;1.97;;;13.00;33.20;;;;;;5032053;28;20456;-81
2021/05/22 09:54:58;;;;;;;12.73;1.43;;;12.90;34.20;;;;;;5033582;28;20484;-82
2021/05/22 09:58:09;;;;;;;12.80;1.20;;;12.90;35.40;;;;;;5033295;28;20452;-82
2021/05/22 10:01:12;;;;;;;;;;;;;;;;;;;;;
2021/05/22 10:03:49;;;;;;;13.97;2.00;;;12.70;36.50;;;;;;4966830;28;20447;-82
2021/05/22 10:06:28;;;;;;;;;;;;;;;;;;;;;
2021/05/22 10:09:25;;;;;;;13.03;2.07;;;12.50;39.40;;;;;;4972420;28;20459;-82
2021/05/22 10:12:19;;;;;;;;;;;;;;;;;;;;;
2021/05/22 10:14:48;;;;;;;14.10;4.53;;;12.30;45.30;;;;;;4982017;28;20444;-82
2021/05/22 10:17:36;;;;;;;13.93;1.70;;;12.30;41.90;;;;;;5033010;28;20834;-81
2021/05/22 10:20:05;;;;;;;11.80;1.70;;;12.30;47.40;;;;;;5033115;28;20506;-81
2021/05/22 10:22:50;;;;;;;11.70;1.90;;;12.60;49.80;;;;;;5032475;28;20484;-81
2021/05/22 10:28:21;;;;;;;11.90;1.50;;;13.10;43.10;;;;;;5032116;28;20807;-81
2021/05/22 10:30:52;;;;;;;13.87;1.30;;;13.30;44.20;;;;;;5032959;28;20460;-81
2021/05/22 10:33:35;;;;;;;14.63;3.10;;;13.60;38.40;;;;;;5032800;28;20452;-82
2021/05/22 10:36:41;;;;;;;16.00;1.40;;;13.50;33.70;;;;;;5031709;28;20898;-82
2021/05/22 10:39:40;;;;;;;;;;;;;;;;;;;;;
2021/05/22 10:42:52;;;;;;;19.40;1.53;;;14.20;31.90;;;;;;5032727;28;20472;-82
2021/05/22 10:45:34;;;;;;;15.00;3.13;;;14.80;28.70;;;;;;5032790;28;20481;-82
2021/05/22 10:48:35;;;;;;;15.50;2.03;;;15.00;24.60;;;;;;5035908;28;20482;-82
2021/05/22 10:51:25;;;;;;;14.73;1.27;;;14.70;24.70;;;;;;5035323;28;20467;-81
2021/05/22 10:53:58;;;;;;;14.90;1.93;;;15.30;22.70;;;;;;5036832;28;20465;-81
2021/05/22 10:56:26;;;;;;;16.93;3.20;;;15.90;22.90;;;;;;5036674;28;20456;-82
2021/05/22 11:02:37;;;;;;;16.63;1.60;;;16.50;20.50;;;;;;5036530;28;20510;-82
2021/05/22 11:05:41;;;;;;;15.90;1.63;;;17.20;17.70;;;;;;5035954;28;20606;-82
2021/05/22 11:08:39;;;;;;;23.80;1.80;;;17.70;15.70;;;;;;5036677;28;20456;-81
2021/05/22 11:11:33;;;;;;;29.63;1.97;;;18.60;14.40;;;;;;5036320;28;20497;-81
2021/05/22 11:14:01;;;;;;;23.60;1.50;;;18.00;10.50;;;;;;5036444;28;20505;-82
2021/05/22 11:16:57;;;;;;;26.40;2.40;;;17.70;10.60;;;;;;5036262;28;20478;-82
2021/05/22 11:20:05;;;;;;;26.13;1.80;;;17.60;11.30;;;;;;5031663;28;20833;-82
2021/05/22 11:22:32;;;;;;;27.40;1.97;;;17.70;12.30;;;;;;5035833;28;20525;-82
2021/05/22 11:25:12;;;;;;;28.27;2.60;;;17.40;13.00;;;;;;5035835;28;20471;-83
2021/05/22 11:28:00;;;;;;;27.80;1.83;;;16.70;15.60;;;;;;5035705;28;20592;-83
2021/05/22 11:37:40;;;;;;;28.37;1.50;;;15.60;19.30;;;;;;4934474;29;20930;-82
2021/05/22 11:40:08;;;;;;;26.27;1.93;;;16.20;21.60;;;;;;4948159;29;20468;-84
2021/05/22 11:42:36;;;;;;;23.13;1.60;;;16.20;20.20;;;;;;5001945;28;20492;-83
2021/05/22 11:45:06;;;;;;;21.50;1.87;;;16.30;17.80;;;;;;5038510;28;20491;-84
2021/05/22 11:47:35;;;;;;;22.13;1.90;;;16.50;17.90;;;;;;5030112;28;20479;-83
2021/05/22 11:50:07;;;;;;;29.60;4.33;;;17.20;14.10;;;;;;5032912;28;20508;-82
2021/05/22 11:52:43;;;;;;;22.87;1.47;;;17.10;13.30;;;;;;5034244;28;22188;-83
2021/05/22 11:55:23;;;;;;;27.37;1.70;;;17.20;13.10;;;;;;5033782;28;20531;-84
2021/05/22 11:58:11;;;;;;;24.07;1.90;;;17.90;10.80;;;;;;5033802;28;20455;-84
2021/05/22 12:00:41;;;;;;;26.40;1.77;;;17.90;11.20;;;;;;5034224;28;20870;-85
2021/05/22 12:03:09;;;;;;;25.30;2.00;;;18.00;11.90;;;;;;5033931;28;20484;-86
2021/05/22 12:05:44;;;;;;;28.80;2.60;;;17.90;12.80;;;;;;5032990;28;20464;-84
2021/05/22 12:08:23;;;;;;;28.90;1.80;;;17.90;13.70;;;;;;5033837;28;20452;-85
2021/05/22 12:11:09;;;;;;;25.70;1.70;;;17.10;13.50;;;;;;5033644;28;20491;-83
2021/05/22 12:13:52;;;;;;;27.90;1.60;;;17.00;17.50;;;;;;5032407;28;20460;-84
2021/05/22 12:16:35;;;;;;;24.87;1.57;;;16.90;16.00;;;;;;5032795;28;20865;-85
2021/05/22 12:19:18;;;;;;;24.30;2.07;;;17.40;17.00;;;;;;5023326;28;21013;-84
2021/05/22 12:21:54;;;;;;;24.87;1.60;;;17.30;15.00;;;;;;5032394;28;20838;-85
2021/05/22 12:24:23;;;;;;;26.20;2.73;;;17.40;14.40;;;;;;5032165;28;20452;-84
2021/05/22 12:26:56;;;;;;;25.00;2.13;;;17.00;15.40;;;;;;5032846;28;20452;-86
2021/05/22 12:29:37;;;;;;;27.27;2.37;;;17.20;15.90;;;;;;5034028;28;20984;-86
2021/05/22 12:32:14;;;;;;;24.50;1.70;;;17.40;14.10;;;;;;5033296;28;20479;-86
2021/05/22 12:34:46;;;;;;;28.37;2.10;;;17.30;14.60;;;;;;5034742;28;20463;-88
2021/05/22 12:40:32;;;;;;;26.20;1.73;;;17.50;11.50;;;;;;4992377;28;20865;-86
2021/05/22 12:42:59;;;;;;;29.90;2.33;;;18.00;10.50;;;;;;5032738;28;20479;-88
2021/05/22 12:45:26;;;;;;;30.50;2.63;;;18.50;9.30;;;;;;5034219;28;20456;-87
2021/05/22 12:47:58;;;;;;;26.40;1.50;;;17.80;9.90;;;;;;5033676;28;21007;-88
2021/05/22 12:50:32;;;;;;;27.10;2.00;;;17.70;10.60;;;;;;5032185;28;20484;-86
2021/05/22 12:53:06;;;;;;;30.23;4.10;;;17.50;10.40;;;;;;5032910;28;20458;-86
2021/05/22 12:55:34;;;;;;;30.27;3.10;;;16.90;10.00;;;;;;5033913;28;20479;-85
2021/05/22 12:58:36;;;;;;;27.20;1.77;;;16.80;11.60;;;;;;5031962;28;20460;-84
2021/05/22 13:01:17;;;;;;;25.73;2.30;;;17.10;12.40;;;;;;4972537;28;20484;-89
2021/05/22 13:06:36;;;;;;;24.40;1.63;;;16.40;13.90;;;;;;4828317;26;20518;-85
2021/05/22 13:09:10;;;;;;;24.77;2.10;;;15.60;17.60;;;;;;5017293;28;20586;-85
2021/05/22 13:18:39;;;;;;;20.60;3.37;;;14.60;28.10;;;;;;4820534;29;20498;-83
2021/05/22 13:21:11;;;;;;;19.23;1.47;;;14.50;29.00;;;;;;4875624;29;20908;-85
2021/05/22 13:23:41;;;;;;;18.23;1.80;;;14.30;30.00;;;;;;5002953;28;20488;-85
2021/05/22 13:26:19;;;;;;;19.67;1.80;;;14.50;31.20;;;;;;5025357;28;20461;-85
2021/05/22 13:28:53;;;;;;;19.47;2.63;;;14.60;30.30;;;;;;5014102;28;20449;-84
2021/05/22 13:31:49;;;;;;;21.50;6.50;;;14.60;28.80;;;;;;5022846;28;20449;-84
2021/05/22 13:34:47;;;;;;;19.27;1.50;;;14.60;28.60;;;;;;5012817;28;20832;-84
2021/05/22 13:39:58;;;;;;;19.40;1.47;;;15.30;27.40;;;;;;5007174;28;20453;-83
2021/05/22 13:42:26;;;;;;;20.80;1.80;;;15.40;24.80;;;;;;5013749;28;20492;-83
2021/05/22 13:44:56;;;;;;;19.70;1.73;;;15.10;24.50;;;;;;5013954;28;20441;-85
2021/05/22 13:47:22;;;;;;;18.07;1.27;;;15.10;23.60;;;;;;5016503;28;20790;-85
2021/05/22 13:49:49;;;;;;;20.00;3.30;;;15.20;25.10;;;;;;5017392;28;21009;-84
2021/05/22 13:52:16;;;;;;;18.60;1.73;;;14.90;25.20;;;;;;5016770;28;20557;-83